createdAt,value
2023-05-05T00:00:35.446Z,100191.13
2023-05-05T00:03:05.746Z,100201.66
2023-05-05T00:05:35.711Z,100201.66
2023-05-05T00:08:08.468Z,100203.28
2023-05-05T00:10:38.586Z,100192.34
2023-05-05T00:13:09.015Z,100196.00
2023-05-05T00:15:39.607Z,100190.34
2023-05-05T00:18:10.137Z,100188.72
2023-05-05T00:20:40.628Z,100188.72
2023-05-05T00:23:13.024Z,100190.72
2023-05-05T00:25:43.444Z,100185.47
2023-05-05T00:28:14.572Z,100173.34
2023-05-05T00:30:45.247Z,100170.91
2023-05-05T00:33:16.189Z,100171.34
2023-05-05T00:35:46.907Z,100166.09
2023-05-05T00:38:19.496Z,100161.66
2023-05-05T00:40:50.022Z,100161.63
2023-05-05T00:43:20.465Z,100162.88
2023-05-05T00:45:55.636Z,100164.09
2023-05-05T00:48:26.834Z,100168.13
2023-05-05T00:50:56.752Z,100159.22
2023-05-05T00:53:31.476Z,100165.31
2023-05-05T00:56:01.417Z,100159.25
2023-05-05T00:58:33.378Z,100163.28
2023-05-05T01:01:03.824Z,100153.56
2023-05-05T01:03:34.591Z,100153.97
2023-05-05T01:06:31.051Z,100144.28
2023-05-05T01:09:23.583Z,100145.06
2023-05-05T01:12:03.319Z,100133.78
2023-05-05T01:14:42.496Z,100135.81
2023-05-05T01:17:21.048Z,100140.28
2023-05-05T01:20:06.604Z,100124.88
2023-05-05T01:22:45.168Z,100128.13
2023-05-05T01:26:05.971Z,100124.09
2023-05-05T01:29:01.466Z,100121.66
2023-05-05T01:31:55.662Z,100125.72
2023-05-05T01:34:34.660Z,100121.28
2023-05-05T01:37:14.411Z,100121.28
2023-05-05T01:39:48.649Z,100127.75
2023-05-05T01:42:20.944Z,100126.53
2023-05-05T01:44:54.488Z,100124.91
2023-05-05T01:47:28.906Z,100129.38
2023-05-05T01:50:00.281Z,100131.38
2023-05-05T01:52:33.479Z,100130.56
2023-05-05T01:55:07.125Z,100124.13
2023-05-05T01:57:41.880Z,100118.47
2023-05-05T02:00:13.992Z,100116.03
2023-05-05T02:02:49.565Z,100112.41
2023-05-05T02:05:23.352Z,100109.97
2023-05-05T02:07:58.856Z,100109.59
2023-05-05T02:10:31.154Z,100109.97
2023-05-05T02:13:04.387Z,100111.19
2023-05-05T02:15:36.585Z,100104.72
2023-05-05T02:18:10.090Z,100104.72
2023-05-05T02:20:42.898Z,100121.31
2023-05-05T02:23:13.700Z,100112.03
2023-05-05T02:25:48.823Z,100126.56
2023-05-05T02:28:24.052Z,100110.41
2023-05-05T02:31:00.444Z,100118.88
2023-05-05T02:33:37.242Z,100108.78
2023-05-05T02:36:13.529Z,100097.88
2023-05-05T02:38:49.120Z,100093.44
2023-05-05T02:41:23.508Z,100088.16
2023-05-05T02:43:57.343Z,100090.19
2023-05-05T02:46:28.152Z,100087.78
2023-05-05T02:49:01.746Z,100082.13
2023-05-05T02:51:32.966Z,100083.34
2023-05-05T02:54:03.912Z,100079.69
2023-05-05T02:56:43.976Z,100082.53
2023-05-05T02:59:22.305Z,100084.56
2023-05-05T03:02:09.091Z,100087.38
2023-05-05T03:04:44.979Z,100092.22
2023-05-05T03:07:24.306Z,100095.06
2023-05-05T03:10:05.865Z,100107.97
2023-05-05T03:12:46.989Z,100110.81
2023-05-05T03:15:17.712Z,100119.31
2023-05-05T03:17:50.278Z,100119.31
2023-05-05T03:20:25.094Z,100110.44
2023-05-05T03:22:56.153Z,100116.88
2023-05-05T03:25:44.401Z,100115.66
2023-05-05T03:28:14.527Z,100108.38
2023-05-05T03:30:45.294Z,100097.06
2023-05-05T03:33:16.033Z,100097.06
2023-05-05T03:35:47.374Z,100080.88
2023-05-05T03:38:18.214Z,100084.97
2023-05-05T03:40:48.772Z,100089.38
2023-05-05T03:43:20.087Z,100089.38
2023-05-05T03:45:51.050Z,100083.72
2023-05-05T03:48:20.906Z,100082.50
2023-05-05T03:50:53.915Z,100092.22
2023-05-05T03:53:24.160Z,100103.53
2023-05-05T03:55:54.541Z,100097.47
2023-05-05T03:58:24.828Z,100100.69
2023-05-05T04:00:55.375Z,100099.50
2023-05-05T04:03:25.903Z,100100.69
2023-05-05T04:05:58.201Z,100099.06
2023-05-05T04:08:28.656Z,100102.72
2023-05-05T04:10:59.870Z,100093.78
2023-05-05T04:13:29.756Z,100091.38
2023-05-05T04:16:00.171Z,100092.56
2023-05-05T04:18:31.792Z,100095.81
2023-05-05T04:21:03.759Z,100096.59
2023-05-05T04:23:34.785Z,100093.38
2023-05-05T04:26:05.882Z,100094.13
2023-05-05T04:28:35.920Z,100091.28
2023-05-05T04:31:06.590Z,100093.31
2023-05-05T04:33:36.683Z,100086.00
2023-05-05T04:36:09.418Z,100086.84
2023-05-05T04:38:39.998Z,100089.66
2023-05-05T04:41:10.769Z,100081.13
2023-05-05T04:43:41.597Z,100086.00
2023-05-05T04:46:11.902Z,100077.06
2023-05-05T04:48:41.734Z,100079.88
2023-05-05T04:51:14.431Z,100071.38
2023-05-05T04:53:44.906Z,100077.00
2023-05-05T04:56:15.480Z,100078.59
2023-05-05T04:58:45.876Z,100072.91
2023-05-05T05:01:16.393Z,100077.34
2023-05-05T05:03:47.170Z,100072.47
2023-05-05T05:06:19.690Z,100069.19
2023-05-05T05:08:50.031Z,100074.03
2023-05-05T05:11:20.668Z,100071.97
2023-05-05T05:13:51.245Z,100072.78
2023-05-05T05:16:21.967Z,100073.56
2023-05-05T05:18:52.203Z,100078.78
2023-05-05T05:21:24.568Z,100073.91
2023-05-05T05:23:54.831Z,100073.88
2023-05-05T05:26:25.164Z,100077.47
2023-05-05T05:28:55.055Z,100081.09
2023-05-05T05:31:25.499Z,100075.00
2023-05-05T05:33:56.695Z,100075.75
2023-05-05T05:36:34.035Z,100074.09
2023-05-05T05:39:04.192Z,100073.25
2023-05-05T05:41:34.634Z,100074.81
2023-05-05T05:44:04.643Z,100071.56
2023-05-05T05:46:34.527Z,100068.72
2023-05-05T05:49:05.604Z,100081.22
2023-05-05T05:51:37.379Z,100074.28
2023-05-05T05:54:07.249Z,100071.00
2023-05-05T05:56:37.590Z,100073.38
2023-05-05T05:59:10.411Z,100068.88
2023-05-05T06:01:40.881Z,100073.28
2023-05-05T06:04:11.635Z,100072.81
2023-05-05T06:06:44.030Z,100068.69
2023-05-05T06:09:14.924Z,100061.75
2023-05-05T06:11:45.654Z,100063.31
2023-05-05T06:14:18.086Z,100068.59
2023-05-05T06:16:49.442Z,100061.63
2023-05-05T06:19:19.371Z,100067.66
2023-05-05T06:21:51.438Z,100052.97
2023-05-05T06:24:21.879Z,100061.03
2023-05-05T06:26:52.305Z,100050.81
2023-05-05T06:29:22.669Z,100050.34
2023-05-05T06:31:52.670Z,100051.91
2023-05-05T06:34:23.456Z,100053.47
2023-05-05T06:36:55.726Z,100054.19
2023-05-05T06:39:26.082Z,100055.78
2023-05-05T06:41:55.751Z,100051.59
2023-05-05T06:44:26.752Z,100049.47
2023-05-05T06:46:57.478Z,100048.53
2023-05-05T06:49:27.848Z,100052.53
2023-05-05T06:52:00.447Z,100052.78
2023-05-05T06:54:30.611Z,100051.88
2023-05-05T06:57:01.352Z,100056.25
2023-05-05T06:59:31.227Z,100051.25
2023-05-05T07:02:01.622Z,100045.81
2023-05-05T07:04:32.089Z,100036.72
2023-05-05T07:07:04.150Z,100045.50
2023-05-05T07:09:34.366Z,100042.91
2023-05-05T07:12:05.551Z,100042.78
2023-05-05T07:14:35.459Z,100037.00
2023-05-05T07:17:05.183Z,100037.22
2023-05-05T07:19:35.931Z,100030.59
2023-05-05T07:22:08.393Z,100029.22
2023-05-05T07:24:38.448Z,100023.38
2023-05-05T07:27:09.736Z,100031.78
2023-05-05T07:29:40.083Z,100016.22
2023-05-05T07:32:10.073Z,100015.31
2023-05-05T07:34:40.777Z,100007.84
2023-05-05T07:37:12.289Z,100015.44
2023-05-05T07:39:42.785Z,100013.69
2023-05-05T07:42:13.301Z,100011.13
2023-05-05T07:44:43.984Z,100013.00
2023-05-05T07:47:13.964Z,100004.66
2023-05-05T07:49:43.878Z,100002.03
2023-05-05T07:52:16.405Z,99998.97
2023-05-05T07:54:48.242Z,100006.47
2023-05-05T07:57:20.466Z,100003.34
2023-05-05T07:59:50.670Z,99999.88
2023-05-05T08:02:21.447Z,100001.31
2023-05-05T08:04:51.757Z,100007.66
2023-05-05T08:07:23.239Z,99994.47
2023-05-05T08:09:53.037Z,100005.69
2023-05-05T08:12:23.813Z,100006.75
2023-05-05T08:14:54.094Z,100013.16
2023-05-05T08:17:26.389Z,100048.13
2023-05-05T08:19:57.170Z,100074.09
2023-05-05T08:22:29.038Z,100091.91
2023-05-05T08:24:59.449Z,100095.50
2023-05-05T08:27:37.211Z,100099.91
2023-05-05T08:30:10.221Z,100119.78
2023-05-05T08:32:41.099Z,100114.44
2023-05-05T08:35:12.483Z,100125.41
2023-05-05T08:37:48.011Z,100131.47
2023-05-05T08:40:18.420Z,100128.25
2023-05-05T08:42:48.499Z,100119.69
2023-05-05T08:45:19.426Z,100132.72
2023-05-05T08:47:49.624Z,100140.94
2023-05-05T08:50:24.880Z,100138.53
2023-05-05T08:53:10.516Z,100138.16
2023-05-05T08:55:52.241Z,100136.56
2023-05-05T08:58:23.572Z,100148.44
2023-05-05T09:00:54.332Z,100150.50
2023-05-05T09:03:24.836Z,100157.00
2023-05-05T09:05:55.886Z,100147.66
2023-05-05T09:08:42.799Z,100141.94
2023-05-05T09:11:12.876Z,100144.44
2023-05-05T09:13:48.973Z,100146.03
2023-05-05T09:16:19.648Z,100148.06
2023-05-05T09:18:49.934Z,100151.75
2023-05-05T09:21:25.117Z,100142.72
2023-05-05T09:24:16.540Z,100144.69
2023-05-05T09:26:49.258Z,100150.78
2023-05-05T09:29:24.277Z,100148.63
2023-05-05T09:32:09.140Z,100146.13
2023-05-05T09:34:40.566Z,100150.59
2023-05-05T09:37:10.546Z,100146.47
2023-05-05T09:39:57.818Z,100149.69
2023-05-05T09:42:28.397Z,100147.63
2023-05-05T09:45:00.071Z,100153.72
2023-05-05T09:47:37.933Z,100149.94
2023-05-05T09:50:11.662Z,100156.09
2023-05-05T09:52:41.986Z,100153.25
2023-05-05T09:55:21.133Z,100161.38
2023-05-05T09:57:54.809Z,100158.16
2023-05-05T10:00:39.476Z,100158.97
2023-05-05T10:03:09.776Z,100161.13
2023-05-05T10:05:52.305Z,100160.31
2023-05-05T10:08:24.150Z,100175.84
2023-05-05T10:10:59.916Z,100176.28
2023-05-05T10:13:31.278Z,100186.88
2023-05-05T10:16:04.489Z,100203.69
2023-05-05T10:18:35.797Z,100209.81
2023-05-05T10:21:07.903Z,100224.56
2023-05-05T10:23:43.679Z,100233.59
2023-05-05T10:26:17.771Z,100265.88
2023-05-05T10:28:54.216Z,100278.16
2023-05-05T10:31:36.293Z,100268.44
2023-05-05T10:34:14.035Z,100281.94
2023-05-05T10:36:48.076Z,100277.16
2023-05-05T10:39:20.587Z,100277.56
2023-05-05T10:41:55.424Z,100254.03
2023-05-05T10:44:27.049Z,100259.00
2023-05-05T10:46:57.698Z,100278.28
2023-05-05T10:49:38.152Z,100292.19
2023-05-05T10:52:26.036Z,100303.22
2023-05-05T10:55:17.837Z,100314.72
2023-05-05T10:57:54.839Z,100323.34
2023-05-05T11:00:53.355Z,100331.97
2023-05-05T11:03:25.738Z,100328.41
2023-05-05T11:06:15.899Z,100317.06
2023-05-05T11:08:47.603Z,100309.81
2023-05-05T11:11:17.778Z,100311.47
2023-05-05T11:14:10.481Z,100308.66
2023-05-05T11:16:50.360Z,100318.16
2023-05-05T11:19:48.903Z,100329.72
2023-05-05T11:22:19.392Z,100337.97
2023-05-05T11:24:49.793Z,100340.09
2023-05-05T11:27:20.211Z,100345.84
2023-05-05T11:30:18.175Z,100349.59
2023-05-05T11:33:26.289Z,100329.78
2023-05-05T11:36:00.121Z,100315.13
2023-05-05T11:38:47.644Z,100316.78
2023-05-05T11:41:36.596Z,100312.78
2023-05-05T11:44:16.665Z,100327.88
2023-05-05T11:47:34.297Z,100337.38
2023-05-05T11:50:23.714Z,100326.44
2023-05-05T11:52:53.959Z,100319.19
2023-05-05T11:55:25.724Z,100320.88
2023-05-05T11:57:56.533Z,100316.84
2023-05-05T12:00:36.042Z,100318.50
2023-05-05T12:03:09.185Z,100310.84
2023-05-05T12:05:39.128Z,100315.34
2023-05-05T12:08:11.749Z,100316.59
2023-05-05T12:10:42.361Z,100339.03
2023-05-05T12:13:22.301Z,100339.44
2023-05-05T12:15:53.042Z,100341.56
2023-05-05T12:18:25.311Z,100349.72
2023-05-05T12:20:56.124Z,100355.03
2023-05-05T12:23:30.426Z,100355.09
2023-05-05T12:26:01.422Z,100349.47
2023-05-05T12:28:47.304Z,100347.44
2023-05-05T12:31:17.462Z,100330.84
2023-05-05T12:33:50.630Z,100344.69
2023-05-05T12:36:20.959Z,100361.03
2023-05-05T12:38:52.520Z,100360.66
2023-05-05T12:41:23.026Z,100369.25
2023-05-05T12:43:58.645Z,100351.81
2023-05-05T12:46:30.245Z,100321.31
2023-05-05T12:49:08.299Z,100357.16
2023-05-05T12:51:39.424Z,100345.00
2023-05-05T12:54:12.461Z,100334.84
2023-05-05T12:56:44.977Z,100377.19
2023-05-05T12:59:32.103Z,100347.53
2023-05-05T13:02:02.907Z,100346.34
2023-05-05T13:04:34.945Z,100337.88
2023-05-05T13:07:16.295Z,100324.88
2023-05-05T13:09:46.581Z,100332.63
2023-05-05T13:12:17.406Z,100308.69
2023-05-05T13:14:48.541Z,100310.31
2023-05-05T13:17:19.434Z,100353.41
2023-05-05T13:19:52.694Z,100325.00
2023-05-05T13:22:23.266Z,100332.38
2023-05-05T13:24:53.838Z,100311.28
2023-05-05T13:27:24.102Z,100316.59
2023-05-05T13:29:54.477Z,100319.03
2023-05-05T13:32:24.669Z,100318.66
2023-05-05T13:34:58.213Z,100320.31
2023-05-05T13:37:28.790Z,100311.41
2023-05-05T13:40:00.700Z,100318.31
2023-05-05T13:42:30.600Z,100312.28
2023-05-05T13:45:00.868Z,100303.34
2023-05-05T13:47:30.854Z,100305.81
2023-05-05T13:50:02.802Z,100301.34
2023-05-05T13:52:33.593Z,100318.03
2023-05-05T13:55:04.330Z,100299.34
2023-05-05T13:57:34.655Z,100305.47
2023-05-05T14:00:05.227Z,100303.06
2023-05-05T14:02:35.928Z,100306.31
2023-05-05T14:05:09.972Z,100293.75
2023-05-05T14:07:40.509Z,100301.50
2023-05-05T14:10:12.115Z,100300.28
2023-05-05T14:12:42.329Z,100312.94
2023-05-05T14:15:13.724Z,100305.63
2023-05-05T14:17:44.200Z,100309.69
2023-05-05T14:20:18.217Z,100303.19
2023-05-05T14:22:49.493Z,100306.47
2023-05-05T14:25:19.520Z,100281.69
2023-05-05T14:27:50.305Z,100294.31
2023-05-05T14:30:20.448Z,100301.22
2023-05-05T14:32:50.891Z,100301.63
2023-05-05T14:35:22.499Z,100300.84
2023-05-05T14:37:52.510Z,100301.25
2023-05-05T14:40:23.152Z,100303.72
2023-05-05T14:42:53.615Z,100302.91
2023-05-05T14:45:23.741Z,100276.13
2023-05-05T14:47:54.250Z,100282.25
2023-05-05T14:50:26.500Z,100286.31
2023-05-05T14:52:57.026Z,100279.41
2023-05-05T14:55:27.611Z,100281.91
2023-05-05T14:57:58.070Z,100241.28
2023-05-05T15:00:28.910Z,100309.13
2023-05-05T15:02:59.329Z,100310.78
2023-05-05T15:05:30.920Z,100283.19
2023-05-05T15:08:01.303Z,100247.44
2023-05-05T15:10:31.111Z,100255.16
2023-05-05T15:13:01.478Z,100299.47
2023-05-05T15:15:31.886Z,100316.50
2023-05-05T15:18:01.608Z,100300.69
2023-05-05T15:20:33.933Z,100270.63
2023-05-05T15:23:04.559Z,100302.34
2023-05-05T15:25:35.055Z,100306.84
2023-05-05T15:28:05.287Z,100331.59
2023-05-05T15:30:35.769Z,100313.75
2023-05-05T15:33:05.756Z,100308.47
2023-05-05T15:35:37.937Z,100306.06
2023-05-05T15:38:08.318Z,100318.66
2023-05-05T15:40:38.664Z,100312.59
2023-05-05T15:43:09.141Z,100303.66
2023-05-05T15:45:41.512Z,100320.72
2023-05-05T15:48:11.475Z,100327.66
2023-05-05T15:50:43.817Z,100324.00
2023-05-05T15:53:13.454Z,100320.41
2023-05-05T15:55:43.346Z,100317.16
2023-05-05T15:58:13.701Z,100314.72
2023-05-05T16:00:45.297Z,100308.69
2023-05-05T16:03:15.822Z,100309.06
2023-05-05T16:05:48.488Z,100306.63
2023-05-05T16:08:19.017Z,100315.59
2023-05-05T16:10:49.471Z,100309.09
2023-05-05T16:13:19.964Z,100317.22
2023-05-05T16:15:50.047Z,100314.00
2023-05-05T16:18:20.646Z,100314.41
2023-05-05T16:20:52.907Z,100315.63
2023-05-05T16:23:22.998Z,100315.25
2023-05-05T16:25:53.541Z,100324.19
2023-05-05T16:28:23.389Z,100314.50
2023-05-05T16:30:53.793Z,100323.44
2023-05-05T16:33:23.661Z,100332.34
2023-05-05T16:35:56.017Z,100329.94
2023-05-05T16:38:26.514Z,100321.44
2023-05-05T16:40:57.113Z,100314.56
2023-05-05T16:43:27.576Z,100321.88
2023-05-05T16:45:57.270Z,100318.22
2023-05-05T16:48:27.893Z,100314.19
2023-05-05T16:51:01.373Z,100317.84
2023-05-05T16:53:31.864Z,100324.34
2023-05-05T16:56:02.196Z,100318.28
2023-05-05T16:58:33.280Z,100317.06
2023-05-05T17:01:04.516Z,100321.13
2023-05-05T17:03:35.265Z,100325.63
2023-05-05T17:06:08.552Z,100328.91
2023-05-05T17:08:38.624Z,100335.81
2023-05-05T17:11:11.509Z,100330.53
2023-05-05T17:13:41.822Z,100325.25
2023-05-05T17:16:12.052Z,100329.31
2023-05-05T17:18:41.860Z,100329.75
2023-05-05T17:21:13.630Z,100320.84
2023-05-05T17:23:44.185Z,100329.78
2023-05-05T17:26:14.734Z,100320.44
2023-05-05T17:28:44.427Z,100334.28
2023-05-05T17:31:14.613Z,100334.63
2023-05-05T17:33:45.064Z,100333.00
2023-05-05T17:36:17.010Z,100346.84
2023-05-05T17:38:47.422Z,100340.78
2023-05-05T17:41:18.092Z,100353.34
2023-05-05T17:43:48.866Z,100354.56
2023-05-05T17:46:19.471Z,100354.16
2023-05-05T17:48:50.205Z,100351.75
2023-05-05T17:51:22.986Z,100360.66
2023-05-05T17:53:53.865Z,100363.94
2023-05-05T17:56:24.286Z,100361.50
2023-05-05T17:58:55.451Z,100369.22
2023-05-05T18:01:27.608Z,100377.34
2023-05-05T18:03:58.234Z,100378.56
2023-05-05T18:06:29.818Z,100378.16
2023-05-05T18:09:00.493Z,100387.13
2023-05-05T18:11:31.426Z,100388.34
2023-05-05T18:14:01.027Z,100391.56
2023-05-05T18:16:31.501Z,100396.44
2023-05-05T18:19:02.030Z,100396.03
2023-05-05T18:21:34.359Z,100409.44
2023-05-05T18:24:15.818Z,100408.22
2023-05-05T18:26:51.850Z,100411.91
2023-05-05T18:29:23.670Z,100409.44
2023-05-05T18:31:55.045Z,100414.31
2023-05-05T18:34:25.667Z,100419.59
2023-05-05T18:36:58.494Z,100425.69
2023-05-05T18:39:29.108Z,100431.75
2023-05-05T18:41:59.396Z,100434.22
2023-05-05T18:44:30.193Z,100433.81
2023-05-05T18:47:00.999Z,100436.25
2023-05-05T18:49:31.569Z,100435.84
2023-05-05T18:52:03.886Z,100439.91
2023-05-05T18:54:36.233Z,100440.75
2023-05-05T18:57:07.805Z,100448.81
2023-05-05T18:59:38.696Z,100450.47
2023-05-05T19:02:09.550Z,100456.13
2023-05-05T19:04:40.039Z,100463.41
2023-05-05T19:07:18.400Z,100467.47
2023-05-05T19:09:54.562Z,100465.88
2023-05-05T19:12:24.923Z,100459.78
2023-05-05T19:14:55.353Z,100455.75
2023-05-05T19:17:25.792Z,100453.34
2023-05-05T19:19:56.281Z,100450.88
2023-05-05T19:22:27.679Z,100455.34
2023-05-05T19:24:57.319Z,100463.44
2023-05-05T19:27:27.696Z,100463.88
2023-05-05T19:29:57.722Z,100469.53
2023-05-05T19:32:27.950Z,100463.47
2023-05-05T19:34:58.647Z,100467.50
2023-05-05T19:37:30.818Z,100467.94
2023-05-05T19:40:00.574Z,100468.34
2023-05-05T19:42:31.124Z,100467.94
2023-05-05T19:45:01.885Z,100476.88
2023-05-05T19:47:31.905Z,100475.25
2023-05-05T19:50:02.106Z,100474.84
2023-05-05T19:52:34.326Z,100472.38
2023-05-05T19:55:05.993Z,100477.69
2023-05-05T19:57:37.068Z,100486.56
2023-05-05T20:00:11.002Z,100488.19
2023-05-05T20:02:42.094Z,100491.44
2023-05-05T20:05:14.265Z,100491.03
2023-05-05T20:07:47.742Z,100486.56
2023-05-05T20:10:18.295Z,100486.16
2023-05-05T20:12:49.532Z,100487.34
2023-05-05T20:15:22.687Z,100492.63
2023-05-05T20:17:52.832Z,100491.00
2023-05-05T20:20:25.740Z,100499.50
2023-05-05T20:22:57.606Z,100501.13
2023-05-05T20:25:28.060Z,100503.16
2023-05-05T20:27:59.428Z,100506.41
2023-05-05T20:30:29.835Z,100502.75
2023-05-05T20:32:59.861Z,100501.13
2023-05-05T20:35:29.952Z,100503.53
2023-05-05T20:38:01.403Z,100512.88
2023-05-05T20:40:32.163Z,100506.78
2023-05-05T20:43:02.939Z,100507.19
2023-05-05T20:45:34.174Z,100508.00
2023-05-05T20:48:04.525Z,100507.19
2023-05-05T20:50:35.173Z,100517.72
2023-05-05T20:53:09.879Z,100503.94
2023-05-05T20:55:40.123Z,100507.19
2023-05-05T20:58:10.663Z,100502.75
2023-05-05T21:00:40.601Z,100504.75
2023-05-05T21:03:10.420Z,100508.00
2023-05-05T21:05:42.102Z,100510.84
2023-05-05T21:08:14.741Z,100510.41
2023-05-05T21:10:44.716Z,100512.47
2023-05-05T21:13:14.809Z,100507.19
2023-05-05T21:15:45.060Z,100512.03
2023-05-05T21:18:15.171Z,100503.13
2023-05-05T21:20:45.684Z,100505.97
2023-05-05T21:23:18.224Z,100510.84
2023-05-05T21:25:48.145Z,100505.56
2023-05-05T21:28:18.686Z,100506.75
2023-05-05T21:31:10.336Z,100502.31
2023-05-05T21:33:41.831Z,100508.38
2023-05-05T21:36:15.409Z,100500.31
2023-05-05T21:38:47.419Z,100497.47
2023-05-05T21:41:18.133Z,100501.50
2023-05-05T21:43:48.851Z,100501.91
2023-05-05T21:46:19.620Z,100492.59
2023-05-05T21:48:50.367Z,100498.25
2023-05-05T21:51:23.107Z,100493.81
2023-05-05T21:53:55.014Z,100497.84
2023-05-05T21:56:25.013Z,100499.06
2023-05-05T21:58:55.413Z,100500.69
2023-05-05T22:01:25.574Z,100488.16
2023-05-05T22:03:56.921Z,100488.56
2023-05-05T22:06:26.606Z,100479.66
2023-05-05T22:08:58.660Z,100480.84
2023-05-05T22:11:28.691Z,100482.47
2023-05-05T22:13:59.134Z,100478.03
2023-05-05T22:16:29.579Z,100473.16
2023-05-05T22:18:59.518Z,100479.22
2023-05-05T22:21:30.073Z,100471.13
2023-05-05T22:24:02.001Z,100471.13
2023-05-05T22:26:32.540Z,100477.16
2023-05-05T22:29:02.603Z,100478.38
2023-05-05T22:31:33.004Z,100470.69
2023-05-05T22:34:03.655Z,100471.91
2023-05-05T22:36:33.738Z,100465.81
2023-05-05T22:39:06.215Z,100460.16
2023-05-05T22:41:36.533Z,100462.56
2023-05-05T22:44:07.438Z,100462.16
2023-05-05T22:46:38.074Z,100462.16
2023-05-05T22:49:08.153Z,100456.91
2023-05-05T22:51:38.169Z,100456.91
2023-05-05T22:54:10.014Z,100461.31
2023-05-05T22:56:40.931Z,100458.13
2023-05-05T22:59:11.856Z,100454.88
2023-05-05T23:01:42.354Z,100444.34
2023-05-05T23:04:12.523Z,100453.25
2023-05-05T23:06:43.012Z,100450.78
2023-05-05T23:09:15.301Z,100458.47
2023-05-05T23:11:45.584Z,100455.25
2023-05-05T23:14:17.285Z,100454.81
2023-05-05T23:16:48.058Z,100452.41
2023-05-05T23:19:18.440Z,100450.78
2023-05-05T23:21:53.314Z,100454.81
2023-05-05T23:24:26.056Z,100456.03
2023-05-05T23:26:57.004Z,100458.06
2023-05-05T23:29:27.267Z,100452.81
2023-05-05T23:31:57.840Z,100455.63
2023-05-05T23:34:28.759Z,100456.84
2023-05-05T23:36:58.833Z,100458.84
2023-05-05T23:39:31.732Z,100459.66
2023-05-05T23:42:01.862Z,100460.03
2023-05-05T23:44:32.224Z,100466.53
2023-05-05T23:47:02.176Z,100468.94
2023-05-05T23:49:32.735Z,100468.13
2023-05-05T23:52:02.511Z,100466.53
2023-05-05T23:54:34.523Z,100465.69
2023-05-05T23:57:04.248Z,100466.91
2023-05-05T23:59:34.420Z,100467.72
